Terminal Aerodrome Forecast
Issued by NWS

Home | Current Version | Previous Version | Text Only | Print | Product List | Glossary On
Versions: 1 2 3 4 5 6 7 8 9 10 11 12 13 14 15 16 17
000
FTUS46 KLOX 211700
TAFOXR
TAF
KOXR 211721Z 2118/2218 08003KT P6SM BKN250
     FM211900 28012KT P6SM SCT250
     FM220200 30005KT P6SM BKN250
     FM220700 05007KT P6SM SCT250=

USA.gov is the U.S. government's official web portal to all federal, state and local government web resources and services.